Time;durP1;ratioP1;P1;durP2;ratioP2;P2;SDS_P1;SDS_P2;PMS_P1;PMS_P2;Temp;Humidity;BMP_temperature;BMP_pressure;BME280_temperature;BME280_humidity;BME280_pressure;Samples;Min_cycle;Max_cycle;Signal;HPM_P1;HPM_P2
2022/11/04 00:02:03;;;;;;;1.38;0.70;;;;;;;9.19;95.84;96343.63;5065060;28;20048;-60
2022/11/04 00:04:30;;;;;;;2.67;0.68;;;;;;;9.29;95.07;96342.84;5066798;28;20438;-60
2022/11/04 00:06:57;;;;;;;2.05;0.73;;;;;;;9.38;94.97;96346.63;5066245;28;20507;-61
2022/11/04 00:09:26;;;;;;;2.17;0.98;;;;;;;9.33;94.72;96339.31;5066156;28;20133;-59
2022/11/04 00:14:38;;;;;;;1.67;0.70;;;;;;;9.41;94.32;96346.09;5065789;28;20523;-60
2022/11/04 00:17:18;;;;;;;1.70;0.80;;;;;;;9.43;94.12;96341.22;5066139;28;20131;-60
2022/11/04 00:33:24;;;;;;;0.98;0.60;;;;;;;9.40;95.55;96376.88;5061185;28;20049;-60
2022/11/04 00:33:47;;;;;;;0.70;0.50;;;;;;;9.41;95.70;96385.78;5060483;28;20458;-60
2022/11/04 00:36:14;;;;;;;1.73;0.80;;;;;;;9.36;96.27;96389.28;5066583;28;20052;-59
2022/11/04 00:38:41;;;;;;;2.08;0.90;;;;;;;9.36;96.12;96389.28;5065845;28;20041;-60
2022/11/04 00:41:24;;;;;;;1.25;0.60;;;;;;;9.34;96.20;96386.88;5065802;28;20044;-60
2022/11/04 00:43:52;;;;;;;1.65;0.68;;;;;;;9.32;95.81;96385.53;5059316;28;20033;-58
2022/11/04 00:46:19;;;;;;;1.60;0.52;;;;;;;9.37;95.51;96382.84;5065971;28;20071;-61
2022/11/04 00:48:47;;;;;;;2.17;0.88;;;;;;;9.42;94.99;96385.53;5065900;28;20571;-60
2022/11/04 00:51:13;;;;;;;1.50;0.60;;;;;;;9.30;96.10;96391.19;5065596;28;20040;-60
2022/11/04 00:53:40;;;;;;;1.40;0.65;;;;;;;9.11;98.26;96393.59;5065012;28;20125;-60
2022/11/04 00:56:06;;;;;;;3.13;0.93;;;;;;;8.94;100.00;96394.63;5049240;28;20072;-59
2022/11/04 00:58:33;;;;;;;1.73;0.70;;;;;;;8.96;100.00;96389.75;5046901;28;20049;-60
2022/11/04 01:00:59;;;;;;;1.25;0.65;;;;;;;8.92;100.00;96394.06;5064427;28;20060;-58
2022/11/04 01:03:26;;;;;;;1.50;0.70;;;;;;;8.83;100.00;96392.97;5065692;28;20051;-60
2022/11/04 01:05:52;;;;;;;1.67;0.82;;;;;;;8.75;100.00;96399.69;5046086;28;20543;-59
2022/11/04 01:08:19;;;;;;;1.55;0.60;;;;;;;8.67;100.00;96402.88;5046226;28;20116;-60
2022/11/04 01:10:46;;;;;;;2.90;0.77;;;;;;;8.63;100.00;96413.41;5062933;28;20045;-60
2022/11/04 01:13:13;;;;;;;1.05;0.47;;;;;;;8.61;100.00;96423.63;5062272;28;20124;-60
2022/11/04 01:15:39;;;;;;;1.35;0.70;;;;;;;8.66;100.00;96409.38;5064258;28;20163;-59
2022/11/04 01:18:06;;;;;;;2.13;0.75;;;;;;;8.60;100.00;96400.44;5045546;28;20045;-60
2022/11/04 01:20:33;;;;;;;1.42;0.63;;;;;;;8.66;100.00;96387.78;5061968;28;20060;-60
2022/11/04 01:22:59;;;;;;;1.98;0.70;;;;;;;8.55;100.00;96385.03;5065440;28;20050;-60
2022/11/04 01:25:26;;;;;;;0.90;0.45;;;;;;;8.47;100.00;96382.78;5063541;28;20167;-58
2022/11/04 01:27:52;;;;;;;2.30;0.60;;;;;;;8.59;100.00;96375.31;5048149;28;20052;-60
2022/11/04 01:30:19;;;;;;;1.58;0.68;;;;;;;8.59;100.00;96377.22;5059484;28;20106;-60
2022/11/04 01:32:45;;;;;;;1.92;0.70;;;;;;;8.56;100.00;96383.94;5065104;28;20346;-60
2022/11/04 01:35:11;;;;;;;0.95;0.43;;;;;;;8.57;100.00;96396.38;5065260;28;20068;-59
2022/11/04 01:37:38;;;;;;;1.35;0.47;;;;;;;8.48;100.00;96402.50;5065286;28;20045;-60
2022/11/04 01:40:05;;;;;;;1.92;0.52;;;;;;;8.43;100.00;96403.28;5065118;28;20068;-60
2022/11/04 01:42:32;;;;;;;1.33;0.40;;;;;;;8.36;100.00;96394.63;5064405;28;20290;-60
2022/11/04 01:44:59;;;;;;;2.33;0.50;;;;;;;8.38;100.00;96406.78;5064773;28;20032;-60
2022/11/04 01:47:36;;;;;;;1.95;0.68;;;;;;;8.38;100.00;96387.91;5052203;28;20590;-59
2022/11/04 01:50:13;;;;;;;2.45;0.60;;;;;;;8.46;100.00;96389.28;5061360;28;20518;-59
2022/11/04 01:52:49;;;;;;;2.78;0.70;;;;;;;8.49;100.00;96385.25;5065075;28;20040;-59
2022/11/04 01:55:22;;;;;;;2.25;0.70;;;;;;;8.48;99.34;96389.00;5064448;28;20072;-60
2022/11/04 01:57:50;;;;;;;0.82;0.30;;;;;;;8.57;99.04;96392.84;5065518;28;20048;-59
2022/11/04 02:00:17;;;;;;;0.70;0.38;;;;;;;8.64;97.69;96387.22;5064637;28;20076;-60
2022/11/04 02:02:58;;;;;;;0.82;0.35;;;;;;;8.58;97.91;96394.47;5064812;28;20048;-60
2022/11/04 02:05:24;;;;;;;0.73;0.40;;;;;;;8.56;97.54;96392.03;5064724;28;20664;-59
2022/11/04 02:07:54;;;;;;;1.65;0.60;;;;;;;8.45;97.45;96398.44;5064964;28;20045;-60
2022/11/04 02:10:24;;;;;;;1.40;0.40;;;;;;;8.55;96.75;96378.84;5064567;28;20041;-60
2022/11/04 02:12:51;;;;;;;2.13;0.60;;;;;;;8.49;95.63;96372.56;5064930;28;20122;-60
2022/11/04 02:15:36;;;;;;;2.65;0.65;;;;;;;8.44;95.32;96370.66;5065099;28;20555;-60
2022/11/04 02:18:05;;;;;;;3.20;0.70;;;;;;;8.49;95.03;96364.47;5053062;28;20049;-58
2022/11/04 02:20:43;;;;;;;1.15;0.60;;;;;;;8.63;93.37;96364.84;5064633;28;20045;-60
2022/11/04 02:23:22;;;;;;;2.13;0.70;;;;;;;8.48;94.30;96368.25;5064579;28;20041;-59
2022/11/04 02:26:26;;;;;;;1.42;0.75;;;;;;;8.40;94.29;96374.16;5066894;28;20123;-60
2022/11/04 02:29:20;;;;;;;1.67;0.50;;;;;;;8.35;94.13;96374.94;5068522;28;20044;-60
2022/11/04 02:32:07;;;;;;;0.75;0.38;;;;;;;8.32;93.31;96372.75;5068255;28;20119;-60
2022/11/04 02:34:57;;;;;;;4.03;0.80;;;;;;;8.28;94.01;96377.84;5066894;28;20498;-59
2022/11/04 02:38:01;;;;;;;4.20;0.80;;;;;;;8.12;95.81;96379.66;5068429;28;20044;-58
2022/11/04 02:41:05;;;;;;;1.42;0.43;;;;;;;8.18;94.75;96362.44;5067321;28;20048;-59
2022/11/04 02:43:52;;;;;;;1.40;0.60;;;;;;;8.10;95.00;96362.13;5068522;28;20080;-60
2022/11/04 02:46:33;;;;;;;1.20;0.60;;;;;;;8.02;96.28;96368.81;5063779;28;20508;-60
2022/11/04 02:49:12;;;;;;;2.72;0.90;;;;;;;8.08;94.82;96373.16;5063966;28;20068;-58
2022/11/04 02:51:47;;;;;;;1.20;0.50;;;;;;;8.01;95.59;96378.78;5063482;28;20029;-60
2022/11/04 02:54:25;;;;;;;1.10;0.60;;;;;;;8.07;94.02;96380.44;5068203;28;20064;-61
2022/11/04 02:57:05;;;;;;;2.53;0.60;;;;;;;8.04;94.88;96399.03;5068262;28;20153;-60
2022/11/04 02:59:40;;;;;;;3.10;0.70;;;;;;;8.02;95.79;96390.38;5062308;28;20118;-58
2022/11/04 03:02:13;;;;;;;3.05;0.57;;;;;;;8.06;94.34;96386.09;5067819;28;20135;-59
2022/11/04 03:04:44;;;;;;;1.45;0.60;;;;;;;7.89;96.73;96383.56;5067994;28;20039;-60
2022/11/04 03:07:14;;;;;;;5.05;0.80;;;;;;;7.68;99.37;96399.56;5068252;28;20121;-60
2022/11/04 03:09:48;;;;;;;2.55;0.88;;;;;;;7.86;98.43;96392.16;5064259;28;20148;-60
2022/11/04 03:12:21;;;;;;;2.35;0.60;;;;;;;7.90;96.32;96372.53;5067817;28;20052;-59
2022/11/04 03:14:58;;;;;;;2.17;0.50;;;;;;;7.90;96.64;96369.00;5067126;28;20068;-59
2022/11/04 03:17:33;;;;;;;6.35;0.95;;;;;;;7.68;100.00;96392.28;5067491;28;20123;-60
2022/11/04 03:20:02;;;;;;;3.30;0.70;;;;;;;7.65;98.37;96397.38;5049469;28;20302;-59
2022/11/04 03:22:33;;;;;;;1.55;0.80;;;;;;;7.76;97.41;96384.81;5062834;28;20098;-60
2022/11/04 03:25:01;;;;;;;1.67;0.65;;;;;;;7.67;96.45;96379.88;5065563;28;20127;-60
2022/11/04 03:27:36;;;;;;;4.75;0.93;;;;;;;7.64;97.37;96385.81;5067401;28;20044;-59
2022/11/04 03:30:13;;;;;;;3.20;0.57;;;;;;;7.72;98.37;96398.00;5067660;28;20119;-60
2022/11/04 03:32:49;;;;;;;2.25;0.70;;;;;;;7.47;100.00;96409.34;5046737;28;20051;-60
2022/11/04 03:35:16;;;;;;;2.85;0.80;;;;;;;7.47;100.00;96409.34;5054255;28;20115;-60
2022/11/04 03:37:44;;;;;;;3.72;0.60;;;;;;;7.53;100.00;96411.03;5064868;28;20396;-60
2022/11/04 03:40:12;;;;;;;2.72;0.68;;;;;;;7.34;100.00;96419.47;5067230;28;20123;-60
2022/11/04 03:42:51;;;;;;;2.45;0.60;;;;;;;7.26;100.00;96411.88;5065929;28;20048;-60
2022/11/04 03:45:18;;;;;;;0.93;0.55;;;;;;;7.12;100.00;96420.31;5067045;28;20105;-60
2022/11/04 03:47:44;;;;;;;3.78;0.88;;;;;;;6.88;100.00;96420.63;5067137;28;20068;-60
2022/11/04 03:50:32;;;;;;;1.50;0.55;;;;;;;6.77;100.00;96426.94;5063196;28;20044;-61
2022/11/04 03:52:59;;;;;;;2.35;0.80;;;;;;;6.61;100.00;96436.69;5067207;28;20045;-60
2022/11/04 03:55:58;;;;;;;1.55;0.60;;;;;;;6.52;100.00;96447.06;5065159;28;20112;-60
2022/11/04 03:58:49;;;;;;;3.40;0.77;;;;;;;6.58;100.00;96443.41;5047557;28;20064;-59
2022/11/04 04:01:40;;;;;;;2.85;1.23;;;;;;;6.55;100.00;96438.50;5060163;28;20574;-60
2022/11/04 04:04:21;;;;;;;0.70;0.47;;;;;;;6.46;100.00;96430.06;5067343;28;20067;-58
2022/11/04 04:06:51;;;;;;;2.67;0.60;;;;;;;6.24;100.00;96432.72;5066436;28;20518;-60
2022/11/04 04:09:22;;;;;;;3.92;0.90;;;;;;;6.10;100.00;96446.50;5065689;28;20086;-60
2022/11/04 04:12:04;;;;;;;2.20;0.77;;;;;;;6.28;100.00;96451.84;5065937;28;20044;-59
2022/11/04 04:14:40;;;;;;;;;;;;;;;6.46;100.00;96427.38;5066937;28;20564;-60
2022/11/04 04:17:09;;;;;;;1.25;0.85;;;;;;;6.35;100.00;96431.78;5066792;28;20039;-59
2022/11/04 04:19:45;;;;;;;3.40;0.60;;;;;;;6.06;100.00;96439.16;5066219;28;20455;-59
2022/11/04 04:22:17;;;;;;;3.03;0.85;;;;;;;5.97;100.00;96436.06;5046220;28;20174;-60
2022/11/04 04:27:41;;;;;;;2.95;1.00;;;;;;;5.86;100.00;96416.25;5050303;28;20072;-60
2022/11/04 04:30:11;;;;;;;1.48;0.80;;;;;;;5.78;100.00;96422.88;5065887;28;20076;-59
2022/11/04 04:32:43;;;;;;;2.22;0.90;;;;;;;5.70;100.00;96428.63;5062810;28;20040;-60
2022/11/04 04:46:30;;;;;;;1.75;1.08;;;;;;;6.20;100.00;96453.88;5058877;28;20407;-60
2022/11/04 04:49:14;;;;;;;5.85;1.30;;;;;;;6.31;100.00;96443.28;5065528;28;20131;-60
2022/11/04 04:51:44;;;;;;;5.53;1.30;;;;;;;6.34;100.00;96448.19;5065273;28;20044;-60
2022/11/04 04:54:11;;;;;;;4.13;1.25;;;;;;;6.18;100.00;96450.66;5066127;28;20040;-60
2022/11/04 04:56:37;;;;;;;3.60;1.08;;;;;;;6.08;100.00;96445.13;5064844;28;20123;-60
2022/11/04 04:59:04;;;;;;;3.70;0.98;;;;;;;6.02;100.00;96446.88;5065991;28;20064;-59
2022/11/04 05:01:31;;;;;;;3.28;1.38;;;;;;;5.93;100.00;96422.28;5065584;28;20072;-59
2022/11/04 05:03:58;;;;;;;3.47;1.90;;;;;;;6.11;100.00;96410.50;5064217;28;20463;-59
2022/11/04 05:06:24;;;;;;;4.80;1.83;;;;;;;5.99;100.00;96397.13;5064949;28;20037;-60
2022/11/04 05:08:51;;;;;;;4.22;1.35;;;;;;;5.92;100.00;96399.19;5065850;28;20046;-60
2022/11/04 05:11:18;;;;;;;4.13;1.40;;;;;;;5.92;100.00;96395.66;5065177;28;20498;-59
2022/11/04 05:13:51;;;;;;;2.92;1.20;;;;;;;6.05;100.00;96381.13;5061241;28;20044;-60
2022/11/04 05:16:18;;;;;;;1.75;0.90;;;;;;;5.97;100.00;96374.25;5065254;28;20079;-60
2022/11/04 05:18:44;;;;;;;2.28;1.00;;;;;;;5.65;100.00;96358.75;5065743;28;20135;-60
2022/11/04 05:21:13;;;;;;;1.17;0.88;;;;;;;5.53;100.00;96356.94;5064462;28;20083;-60
2022/11/04 05:23:40;;;;;;;4.78;1.10;;;;;;;5.38;100.00;96359.41;5054782;28;20139;-59
2022/11/04 05:26:06;;;;;;;1.45;0.90;;;;;;;5.27;100.00;96367.25;5057813;28;20445;-60
2022/11/04 05:28:33;;;;;;;5.93;1.38;;;;;;;5.42;100.00;96371.28;5065241;28;20361;-59
2022/11/04 05:31:05;;;;;;;4.93;1.23;;;;;;;5.40;100.00;96365.31;5061073;28;20072;-57
2022/11/04 05:33:31;;;;;;;;;;;;;;;5.37;100.00;96373.84;5065026;28;20229;-60
2022/11/04 05:36:07;;;;;;;2.38;1.10;;;;;;;5.25;100.00;96377.44;5059324;28;20089;-59
2022/11/04 05:38:34;;;;;;;3.28;1.23;;;;;;;5.13;100.00;96390.94;5045519;28;20080;-59
2022/11/04 05:41:00;;;;;;;3.45;1.10;;;;;;;5.08;100.00;96405.06;5056022;28;20571;-59
2022/11/04 05:43:27;;;;;;;4.30;1.08;;;;;;;5.16;100.00;96419.16;5065497;28;20047;-59
2022/11/04 05:45:54;;;;;;;3.22;1.10;;;;;;;5.10;100.00;96420.94;5064986;28;20488;-59
2022/11/04 05:48:20;;;;;;;3.90;1.23;;;;;;;5.12;100.00;96424.16;5065269;28;20865;-59
2022/11/04 05:50:47;;;;;;;3.42;1.52;;;;;;;5.27;100.00;96420.16;5064562;28;20465;-60
2022/11/04 05:53:13;;;;;;;2.97;0.95;;;;;;;5.19;100.00;96415.97;5065522;28;20128;-59
2022/11/04 05:55:40;;;;;;;2.85;1.05;;;;;;;5.09;100.00;96405.88;5053896;28;20037;-59
2022/11/04 05:58:06;;;;;;;4.72;1.30;;;;;;;5.09;100.00;96421.97;5065523;28;20044;-59
2022/11/04 06:00:33;;;;;;;3.58;1.17;;;;;;;5.11;100.00;96424.41;5066144;28;20120;-60
2022/11/04 06:03:00;;;;;;;2.85;1.20;;;;;;;5.16;100.00;96421.84;5069302;28;20066;-60
2022/11/04 06:05:27;;;;;;;3.88;1.52;;;;;;;5.17;100.00;96418.09;5068949;28;20523;-60
2022/11/04 06:07:54;;;;;;;5.40;1.50;;;;;;;5.09;100.00;96408.56;5069225;28;20050;-60
2022/11/04 06:10:22;;;;;;;4.30;1.17;;;;;;;5.10;100.00;96409.38;5057897;28;20041;-59
2022/11/04 06:12:48;;;;;;;4.85;1.20;;;;;;;4.97;100.00;96405.13;5067971;28;20052;-59
2022/11/04 06:15:15;;;;;;;3.05;1.17;;;;;;;4.90;100.00;96397.22;5068622;28;20094;-60
2022/11/04 06:17:41;;;;;;;4.95;1.38;;;;;;;4.91;100.00;96414.94;5069326;28;20492;-59
2022/11/04 06:20:09;;;;;;;3.22;1.40;;;;;;;4.87;100.00;96408.41;5068128;28;20131;-59
2022/11/04 06:22:35;;;;;;;7.35;1.35;;;;;;;4.86;100.00;96414.84;5068822;28;20071;-60
2022/11/04 06:25:02;;;;;;;4.18;1.50;;;;;;;4.76;100.00;96418.94;5049307;28;20473;-58
2022/11/04 06:27:28;;;;;;;4.43;1.55;;;;;;;4.88;100.00;96421.59;5049339;28;20048;-60
2022/11/04 06:29:56;;;;;;;3.95;1.60;;;;;;;4.91;100.00;96428.34;5049037;28;20083;-60
2022/11/04 06:32:23;;;;;;;4.25;1.27;;;;;;;4.83;100.00;96424.16;5064392;28;20551;-59
2022/11/04 06:34:49;;;;;;;3.17;1.25;;;;;;;4.97;100.00;96431.94;5068656;28;20423;-60
2022/11/04 06:37:16;;;;;;;3.80;1.42;;;;;;;4.84;100.00;96427.66;5065502;28;20541;-60
2022/11/04 06:39:42;;;;;;;3.22;1.00;;;;;;;4.72;100.00;96433.06;5066457;28;20098;-58
2022/11/04 06:42:09;;;;;;;2.47;1.20;;;;;;;4.85;100.00;96443.53;5062613;28;20139;-59
2022/11/04 06:44:35;;;;;;;5.20;1.20;;;;;;;4.85;100.00;96446.19;5066833;28;20051;-59
2022/11/04 06:47:02;;;;;;;6.97;1.70;;;;;;;4.92;100.00;96448.75;5063535;28;20056;-60
2022/11/04 06:49:28;;;;;;;3.72;1.45;;;;;;;4.79;100.00;96455.22;5063924;28;20531;-60
2022/11/04 06:51:55;;;;;;;4.78;1.95;;;;;;;4.81;100.00;96458.47;5066499;28;20049;-59
2022/11/04 06:54:21;;;;;;;3.20;1.60;;;;;;;4.85;100.00;96462.28;5061028;28;20128;-60
2022/11/04 06:56:48;;;;;;;3.85;1.40;;;;;;;4.89;100.00;96457.25;5064884;28;20473;-60
2022/11/04 06:59:17;;;;;;;3.35;1.45;;;;;;;4.90;100.00;96456.22;5065621;28;20040;-60
2022/11/04 07:01:45;;;;;;;7.88;1.80;;;;;;;4.99;100.00;96462.84;5064523;28;20058;-59
2022/11/04 07:04:11;;;;;;;5.18;2.20;;;;;;;5.12;100.00;96467.09;5065008;28;20062;-59
2022/11/04 07:06:41;;;;;;;4.68;1.63;;;;;;;5.16;100.00;96460.19;5065590;28;20044;-59
2022/11/04 07:09:12;;;;;;;4.00;2.10;;;;;;;5.20;100.00;96465.94;5054083;28;20558;-60
2022/11/04 07:11:40;;;;;;;5.22;2.80;;;;;;;5.34;100.00;96450.31;5064329;28;20049;-59
2022/11/04 07:14:07;;;;;;;4.57;2.47;;;;;;;5.29;100.00;96455.59;5061279;28;20064;-60
2022/11/04 07:16:34;;;;;;;3.88;1.70;;;;;;;5.19;100.00;96446.31;5059867;28;20458;-59
2022/11/04 07:19:02;;;;;;;4.30;1.40;;;;;;;5.18;100.00;96443.88;5065556;28;20048;-59
2022/11/04 07:21:28;;;;;;;3.28;1.92;;;;;;;5.24;100.00;96442.91;5057311;28;20072;-59
2022/11/04 07:23:55;;;;;;;5.45;2.20;;;;;;;5.24;100.00;96442.91;5066668;28;20132;-59
2022/11/04 07:26:21;;;;;;;4.68;1.90;;;;;;;5.29;100.00;96434.97;5058119;28;20544;-58
2022/11/04 07:28:48;;;;;;;5.22;2.25;;;;;;;5.36;100.00;96429.44;5065210;28;20732;-59
2022/11/04 07:31:16;;;;;;;6.57;2.15;;;;;;;5.53;100.00;96428.66;5066870;28;20052;-57
2022/11/04 07:33:48;;;;;;;4.95;2.42;;;;;;;5.66;100.00;96422.94;5057993;28;20127;-59
2022/11/04 07:36:15;;;;;;;;;;;;;;;5.71;100.00;96417.66;5063837;28;20125;-58
2022/11/04 07:38:42;;;;;;;7.88;2.50;;;;;;;5.77;100.00;96415.03;5064193;28;20042;-60
2022/11/04 07:41:09;;;;;;;4.43;1.85;;;;;;;5.74;100.00;96419.03;5063671;28;20559;-59
2022/11/04 07:43:35;;;;;;;4.07;2.17;;;;;;;5.80;100.00;96407.34;5056422;28;20045;-59
2022/11/04 07:46:08;;;;;;;6.47;2.03;;;;;;;5.92;100.00;96414.47;5048470;28;20086;-59
2022/11/04 07:48:36;;;;;;;5.22;2.13;;;;;;;5.95;100.00;96403.25;5066458;28;20075;-59
2022/11/04 07:51:05;;;;;;;5.78;2.28;;;;;;;5.98;100.00;96405.44;5065817;28;20044;-58
2022/11/04 07:53:31;;;;;;;5.60;2.45;;;;;;;5.97;100.00;96398.44;5067102;28;20515;-60
2022/11/04 07:56:05;;;;;;;8.32;2.60;;;;;;;6.10;100.00;96400.81;5065645;28;20479;-59
2022/11/04 07:58:32;;;;;;;7.43;2.25;;;;;;;6.18;100.00;96404.94;5066824;28;20055;-58
2022/11/04 08:01:00;;;;;;;5.25;2.00;;;;;;;6.28;100.00;96398.06;5066363;28;20135;-60
2022/11/04 08:03:27;;;;;;;4.82;2.10;;;;;;;6.42;100.00;96393.97;5065898;28;20131;-58
2022/11/04 08:05:58;;;;;;;4.72;1.65;;;;;;;6.53;100.00;96389.53;5066936;28;20489;-60
2022/11/04 08:08:26;;;;;;;3.83;2.28;;;;;;;6.68;100.00;96380.03;5057277;28;20503;-58
2022/11/04 08:11:02;;;;;;;5.20;1.80;;;;;;;6.92;100.00;96387.84;5065921;28;20462;-60
2022/11/04 08:13:30;;;;;;;7.38;2.08;;;;;;;7.03;100.00;96382.28;5066932;28;20499;-60
2022/11/04 08:16:01;;;;;;;4.78;1.70;;;;;;;7.13;100.00;96378.91;5066028;28;20068;-59
2022/11/04 08:18:30;;;;;;;4.30;1.83;;;;;;;7.30;100.00;96383.38;5066573;28;20287;-60
2022/11/04 08:20:57;;;;;;;5.15;1.80;;;;;;;7.41;100.00;96381.56;5065873;28;20314;-60
2022/11/04 08:23:23;;;;;;;4.50;1.38;;;;;;;7.53;100.00;96373.31;5057420;28;20119;-59
2022/11/04 08:25:50;;;;;;;3.58;1.65;;;;;;;7.71;100.00;96374.00;5046183;28;20502;-59
2022/11/04 08:28:16;;;;;;;3.72;1.50;;;;;;;7.85;100.00;96372.47;5046908;28;20116;-60
2022/11/04 08:31:02;;;;;;;3.55;1.45;;;;;;;7.85;100.00;96374.38;5045878;28;20053;-60
2022/11/04 08:33:31;;;;;;;2.28;1.20;;;;;;;7.80;100.00;96372.44;5052907;28;20075;-59
2022/11/04 08:36:01;;;;;;;3.67;1.60;;;;;;;7.86;100.00;96384.91;5066640;28;20037;-59
2022/11/04 08:38:28;;;;;;;3.22;1.10;;;;;;;7.90;100.00;96395.97;5066199;28;20127;-59
2022/11/04 08:40:58;;;;;;;2.45;1.40;;;;;;;7.94;100.00;96389.81;5065550;28;20490;-60
2022/11/04 08:43:26;;;;;;;4.30;1.88;;;;;;;7.98;100.00;96383.88;5066209;28;20067;-59
2022/11/04 08:45:52;;;;;;;4.80;1.33;;;;;;;7.98;100.00;96378.47;5066234;28;20369;-58
2022/11/04 08:48:19;;;;;;;3.70;1.23;;;;;;;8.11;100.00;96375.31;5065519;28;20094;-58
2022/11/04 08:50:54;;;;;;;3.47;0.98;;;;;;;8.15;100.00;96381.81;5065587;28;20064;-61
2022/11/04 08:53:21;;;;;;;2.75;1.10;;;;;;;8.06;100.00;96386.09;5057837;28;20106;-60
2022/11/04 08:55:48;;;;;;;5.30;1.65;;;;;;;8.13;100.00;96389.38;5045910;28;20394;-59
2022/11/04 08:58:14;;;;;;;3.22;1.30;;;;;;;8.20;99.59;96386.44;5064632;28;20123;-59
2022/11/04 09:00:41;;;;;;;4.50;1.00;;;;;;;8.33;100.00;96395.94;5065486;28;20044;-60
2022/11/04 09:03:08;;;;;;;3.58;1.20;;;;;;;8.41;100.00;96398.13;5065763;28;20068;-60
2022/11/04 09:05:42;;;;;;;3.25;0.90;;;;;;;8.32;99.71;96400.53;5065975;28;20116;-60
2022/11/04 09:08:10;;;;;;;2.70;1.10;;;;;;;8.32;100.00;96411.31;5065928;28;20091;-60
2022/11/04 09:10:41;;;;;;;2.47;1.13;;;;;;;8.49;100.00;96410.34;5060527;28;20045;-60
2022/11/04 09:13:10;;;;;;;2.80;1.00;;;;;;;8.64;100.00;96423.13;5061208;28;20048;-59
2022/11/04 09:15:37;;;;;;;4.65;1.40;;;;;;;8.76;99.38;96425.59;5062483;28;20079;-60
2022/11/04 09:18:04;;;;;;;2.20;0.98;;;;;;;8.43;99.24;96428.38;5065309;28;20127;-59
2022/11/04 09:20:31;;;;;;;3.90;1.20;;;;;;;8.59;99.48;96426.59;5065333;28;20072;-59
2022/11/04 09:22:58;;;;;;;4.13;1.23;;;;;;;8.70;98.90;96432.06;5065544;28;20242;-59
2022/11/04 09:25:24;;;;;;;3.55;1.20;;;;;;;8.73;96.97;96433.41;5065684;28;20127;-60
2022/11/04 09:27:51;;;;;;;2.70;1.10;;;;;;;8.62;96.69;96425.25;5066065;28;20072;-59
2022/11/04 09:30:18;;;;;;;4.43;1.17;;;;;;;8.54;97.40;96428.44;5063077;28;20044;-60
2022/11/04 09:32:44;;;;;;;3.15;1.35;;;;;;;8.48;97.37;96427.59;5065330;28;20583;-58
2022/11/04 09:35:18;;;;;;;2.40;1.10;;;;;;;8.59;97.32;96442.00;5068327;28;20118;-59
2022/11/04 09:37:45;;;;;;;2.70;0.93;;;;;;;8.59;96.91;96433.91;5054425;28;20150;-58
2022/11/04 09:40:19;;;;;;;3.97;1.00;;;;;;;8.71;97.65;96434.47;5049041;28;20551;-59
2022/11/04 09:43:22;;;;;;;2.78;0.98;;;;;;;8.57;96.52;96433.34;5065218;28;20468;-57
2022/11/04 09:45:48;;;;;;;4.22;1.10;;;;;;;8.69;97.57;96438.50;5060464;28;20040;-58
2022/11/04 09:48:27;;;;;;;6.45;1.10;;;;;;;8.72;96.03;96435.28;5062739;28;20072;-59
2022/11/04 09:50:57;;;;;;;5.05;1.00;;;;;;;8.83;95.86;96428.06;5060025;28;20040;-60
2022/11/04 09:53:44;;;;;;;5.18;1.10;;;;;;;8.79;94.74;96430.47;5060762;28;20068;-60
2022/11/04 09:56:22;;;;;;;5.57;1.23;;;;;;;8.74;95.37;96427.75;5062460;28;20068;-60
2022/11/04 09:58:49;;;;;;;4.18;1.30;;;;;;;8.71;95.26;96423.69;5056266;28;20198;-60
2022/11/04 10:01:43;;;;;;;6.10;1.25;;;;;;;8.78;96.17;96417.25;5065310;28;20522;-60
2022/11/04 10:04:32;;;;;;;3.08;0.90;;;;;;;8.83;93.36;96403.75;5059916;28;20557;-60
2022/11/04 10:07:19;;;;;;;4.22;1.17;;;;;;;8.96;92.54;96405.97;5067688;28;20507;-60
2022/11/04 10:10:12;;;;;;;4.95;0.98;;;;;;;8.95;92.83;96406.22;5059407;28;20469;-59
2022/11/04 10:13:00;;;;;;;8.27;1.40;;;;;;;8.90;92.14;96404.34;5066780;28;20110;-60
2022/11/04 10:15:30;;;;;;;6.20;0.93;;;;;;;9.03;92.73;96408.41;5056210;28;20102;-60
2022/11/04 10:18:17;;;;;;;4.70;1.20;;;;;;;8.98;92.79;96403.81;5067064;28;20040;-59
2022/11/04 10:21:10;;;;;;;9.45;1.52;;;;;;;9.17;92.40;96392.50;5065983;28;20072;-59
2022/11/04 10:23:44;;;;;;;5.45;1.50;;;;;;;9.11;91.52;96394.38;5061531;28;20561;-59
2022/11/04 10:26:19;;;;;;;6.80;1.42;;;;;;;9.01;90.85;96391.66;5063460;28;20079;-59
2022/11/04 10:28:53;;;;;;;6.50;0.95;;;;;;;9.05;90.37;96394.63;5063920;28;20051;-59
2022/11/04 10:31:20;;;;;;;9.63;1.67;;;;;;;9.07;90.01;96390.59;5060380;28;20531;-58
2022/11/04 10:33:56;;;;;;;2.83;1.00;;;;;;;9.16;89.92;96385.50;5064795;28;20048;-60
2022/11/04 10:36:23;;;;;;;5.38;1.10;;;;;;;9.35;90.41;96387.66;5066385;28;20040;-59
2022/11/04 10:38:56;;;;;;;6.00;0.80;;;;;;;9.52;88.83;96390.13;5053278;28;20121;-58
2022/11/04 10:41:22;;;;;;;3.03;0.80;;;;;;;9.66;87.48;96392.31;5065984;28;20040;-59
2022/11/04 10:44:13;;;;;;;4.18;1.02;;;;;;;9.79;86.42;96388.22;5064588;28;20076;-59
2022/11/04 10:46:46;;;;;;;4.40;1.00;;;;;;;9.88;87.14;96389.31;5065543;28;20131;-58
2022/11/04 10:49:34;;;;;;;3.15;1.40;;;;;;;9.72;86.77;96386.63;5059376;28;20150;-60
2022/11/04 10:52:01;;;;;;;2.38;0.90;;;;;;;9.78;86.25;96392.84;5066260;28;20062;-59
2022/11/04 10:54:33;;;;;;;5.30;1.02;;;;;;;9.75;86.49;96390.66;5066001;28;20119;-60
2022/11/04 10:56:59;;;;;;;5.03;1.45;;;;;;;9.69;86.98;96389.06;5066308;28;20124;-59
2022/11/04 10:59:29;;;;;;;4.05;1.52;;;;;;;9.60;87.10;96386.91;5066548;28;20114;-60
2022/11/04 11:02:01;;;;;;;4.75;1.20;;;;;;;9.82;86.83;96388.50;5065461;28;20131;-59
2022/11/04 11:04:35;;;;;;;;;;;;;;;9.86;86.59;96383.38;5066913;28;20044;-60
2022/11/04 11:07:08;;;;;;;5.97;1.23;;;;;;;9.71;86.37;96379.59;5054399;28;20019;-60
2022/11/04 11:09:39;;;;;;;3.20;1.00;;;;;;;9.75;85.91;96374.44;5066546;28;20123;-59
2022/11/04 11:12:19;;;;;;;3.50;1.00;;;;;;;9.81;86.63;96377.97;5055962;28;20139;-60
2022/11/04 11:15:31;;;;;;;5.90;0.80;;;;;;;10.02;87.40;96371.44;5059314;28;20045;-60
2022/11/04 11:18:07;;;;;;;6.57;1.48;;;;;;;10.15;85.95;96369.28;5051372;28;20127;-59
2022/11/04 11:20:36;;;;;;;4.45;1.15;;;;;;;10.28;85.06;96365.97;5058598;28;20476;-59
2022/11/04 11:23:08;;;;;;;4.07;1.15;;;;;;;10.17;84.70;96372.50;5072973;28;20513;-60
2022/11/04 11:25:43;;;;;;;3.25;1.13;;;;;;;10.42;82.23;96370.81;5070735;28;20040;-59
2022/11/04 11:28:20;;;;;;;2.70;0.88;;;;;;;10.35;82.44;96360.28;5056676;28;20136;-60
2022/11/04 11:30:46;;;;;;;8.07;1.20;;;;;;;10.30;82.42;96359.47;5062862;28;20083;-58
2022/11/04 11:33:22;;;;;;;3.78;1.00;;;;;;;10.33;81.35;96357.06;5057573;28;20143;-58
2022/11/04 11:36:01;;;;;;;3.83;0.75;;;;;;;10.47;80.88;96354.59;5064714;28;20068;-59
2022/11/04 11:38:31;;;;;;;3.42;1.13;;;;;;;10.62;79.50;96347.50;5061999;28;20051;-59
2022/11/04 11:41:12;;;;;;;6.55;1.30;;;;;;;10.41;81.72;96345.66;5065495;28;20585;-58
2022/11/04 11:43:56;;;;;;;4.65;1.00;;;;;;;10.30;81.71;96341.38;5064483;28;20048;-57
2022/11/04 11:46:26;;;;;;;3.33;0.93;;;;;;;10.43;82.49;96342.66;5065228;28;20565;-59
2022/11/04 11:48:59;;;;;;;4.75;1.02;;;;;;;10.51;81.79;96339.41;5062733;28;20072;-58
2022/11/04 11:51:31;;;;;;;6.45;1.25;;;;;;;10.59;82.39;96339.94;5064511;28;20098;-60
2022/11/04 11:54:29;;;;;;;4.85;1.52;;;;;;;10.75;80.63;96341.47;5059015;28;20045;-57
2022/11/04 11:56:59;;;;;;;2.88;0.98;;;;;;;10.82;80.83;96340.34;5064594;28;20124;-60
2022/11/04 12:00:05;;;;;;;4.63;0.90;;;;;;;10.92;78.43;96346.53;5061071;28;20053;-57
2022/11/04 12:03:01;;;;;;;4.38;1.05;;;;;;;10.75;78.86;96346.91;5077479;28;20040;-60
2022/11/04 12:05:58;;;;;;;6.05;1.15;;;;;;;10.65;77.92;96349.66;5064312;28;20527;-59
2022/11/04 12:08:57;;;;;;;4.18;0.90;;;;;;;10.56;79.33;96348.59;5061413;28;20044;-60
2022/11/04 12:11:54;;;;;;;2.92;1.00;;;;;;;10.44;79.78;96346.19;5051127;28;20243;-60
2022/11/04 12:14:27;;;;;;;5.38;1.10;;;;;;;10.48;80.37;96341.88;5064347;28;20577;-59
2022/11/04 12:17:25;;;;;;;4.82;1.50;;;;;;;10.57;79.51;96351.03;5051589;28;20504;-59
2022/11/04 12:20:21;;;;;;;4.05;0.95;;;;;;;10.52;79.46;96353.75;5059989;28;20696;-60
2022/11/04 12:23:02;;;;;;;4.07;0.90;;;;;;;10.34;80.88;96353.25;5040358;28;20501;-57
2022/11/04 12:25:38;;;;;;;4.00;0.80;;;;;;;10.13;82.18;96357.91;5045652;28;20253;-59
2022/11/04 12:28:27;;;;;;;5.32;0.75;;;;;;;10.16;82.42;96349.25;5046561;28;20075;-60
2022/11/04 12:31:21;;;;;;;4.25;0.63;;;;;;;9.91;85.04;96350.91;5052640;28;20040;-60